ADDS METAR Data INFO
IDs: Format: Raw Decoded Include TAF

Data at: 0319 UTC 18 Aug 2017

K3T5 180315Z AUTO 17006KT 10SM CLR 30/24 A3000 RMK AO2 T02960235
K3T5 180255Z AUTO 17005KT 10SM CLR 30/23 A2999 RMK AO2 T03000232
K3T5 180235Z AUTO 17005KT 10SM CLR 30/23 A2998 RMK AO2 T03030232
K3T5 180215Z AUTO 17005KT 10SM CLR 31/23 A2997 RMK AO2 T03080232
K3T5 180155Z AUTO 16006KT 10SM CLR 32/23 A2997 RMK AO2 T03150230
K3T5 180135Z AUTO 16005KT 10SM CLR 32/22 A2996 RMK AO2 T03220224
K3T5 180115Z AUTO 17005KT 10SM CLR 33/22 A2995 RMK AO2 T03280221
K3T5 180055Z AUTO 16007KT 10SM CLR 34/22 A2994 RMK AO2 T03370220
K3T5 180035Z AUTO 16010G15KT 10SM CLR 35/22 A2993 RMK AO2 T03450220
K3T5 180015Z AUTO 17011KT 10SM CLR 35/22 A2991 RMK AO2 T03520218
K3T5 172355Z AUTO 17008KT 10SM CLR 36/22 A2991 RMK AO2 T03570219 10394 20356
K3T5 172335Z AUTO 17009KT 10SM CLR 36/22 A2990 RMK AO2 T03620219
K3T5 172315Z AUTO 17011G15KT 10SM CLR 37/22 A2990 RMK AO2 T03650215
K3T5 172255Z AUTO 16011G15KT 10SM SCT070 SCT080 38/22 A2990 RMK AO2 T03760216
K3T5 172235Z AUTO 14007KT 10SM SCT080 37/21 A2991 RMK AO2 T03740211
K3T5 172215Z AUTO 19006KT 10SM SCT070 SCT080 38/21 A2991 RMK AO2 T03800205
K3T5 172155Z AUTO 15005KT 10SM BKN070 BKN090 BKN120 38/20 A2992 RMK AO2 T03830203
K3T5 172135Z AUTO 19005KT 10SM BKN070 BKN090 OVC120 39/21 A2992 RMK AO2 T03900211
K3T5 172115Z AUTO 15006KT 10SM BKN070 38/21 A2993 RMK AO2 T03750209
K3T5 172055Z AUTO 16009G15KT 10SM BKN080 39/21 A2993 RMK AO2 T03900211
K3T5 172015Z AUTO 19006KT 10SM SCT070 38/20 A2996 RMK AO2 T03840203
K3T5 171955Z AUTO 20005KT 10SM CLR 39/21 A2997 RMK AO2 T03870210
K3T5 171935Z AUTO 15006KT 10SM CLR 38/21 A2998 RMK AO2 T03830210
K3T5 171915Z AUTO 16007G15KT 10SM CLR 39/21 A2999 RMK AO2 T03850208
K3T5 171855Z AUTO 25007KT 10SM CLR 38/20 A2999 RMK AO2 T03790204
K3T5 171835Z AUTO 19006G16KT 10SM CLR 37/21 A3000 RMK AO2 T03690213
K3T5 171815Z AUTO 18009KT 10SM CLR 37/22 A3001 RMK AO2 T03700215
K3T5 171755Z AUTO 17012G16KT 10SM CLR 36/22 A3001 RMK AO2 T03640219 10367 20270
K3T5 171735Z AUTO 18009G14KT 10SM CLR 36/22 A3001 RMK AO2 T03610222
K3T5 171715Z AUTO 18008G16KT 10SM CLR 36/23 A3002 RMK AO2 T03560226
K3T5 171655Z AUTO 20013G17KT 160V220 10SM CLR 35/22 A3003 RMK AO2 T03530224
K3T5 171635Z AUTO 19012G17KT 160V220 10SM CLR 34/23 A3004 RMK AO2 T03440231
K3T5 171615Z AUTO 19011G16KT 170V230 10SM CLR 34/23 A3004 RMK AO2 T03400234
K3T5 171555Z AUTO 20010KT 10SM CLR 34/23 A3004 RMK AO2 T03370234
K3T5 171535Z AUTO 19009G14KT 10SM SCT031 SCT035 33/24 A3004 RMK AO2 T03280237
K3T5 171515Z AUTO 18008G14KT 10SM BKN029 BKN035 33/24 A3004 RMK AO2 T03250244
K3T5 171455Z AUTO 20011G14KT 10SM BKN025 BKN031 32/25 A3003 RMK AO2 T03220250
K3T5 171435Z AUTO 20008KT 10SM SCT023 SCT027 31/25 A3002 RMK AO2 T03130251
K3T5 171415Z AUTO 21011G15KT 10SM BKN018 31/26 A3002 RMK AO2 T03060257
K3T5 171355Z AUTO 18008G14KT 10SM SCT016 BKN021 30/26 A3001 RMK AO2 T02990261
K3T5 171335Z AUTO 19009KT 7SM SCT014 29/26 A3001 RMK AO2 T02920264
K3T5 171315Z AUTO 19003KT 7SM CLR 28/27 A3001 RMK AO2 T02830265
K3T5 171255Z AUTO 19003KT 7SM CLR 28/27 A3001 RMK AO2 T02770265
K3T5 171235Z AUTO 17003KT 7SM CLR 27/26 A3000 RMK AO2 T02730263
K3T5 171215Z AUTO 00000KT 7SM SCT018 27/26 A3000 RMK AO2 T02710262
K3T5 171155Z AUTO 16003KT 7SM SCT014 SCT021 27/26 A2999 RMK AO2 T02700260 10287 20270
K3T5 171135Z AUTO 00000KT 7SM SCT014 SCT023 SCT027 27/26 A3000 RMK AO2 T02740261
K3T5 171115Z AUTO 00000KT 10SM BKN016 BKN027 BKN033 28/26 A2999 RMK AO2 T02770262
K3T5 171055Z AUTO 18004KT 10SM BKN016 OVC027 28/26 A2999 RMK AO2 T02790261
K3T5 171035Z AUTO 18005KT 10SM BKN016 OVC024 28/26 A2998 RMK AO2 T02810261
K3T5 171015Z AUTO 18004KT 10SM BKN016 BKN021 OVC029 28/26 A2998 RMK AO2 T02810262
K3T5 170955Z AUTO 19004KT 10SM SCT018 SCT023 BKN038 28/26 A2998 RMK AO2 T02800262
K3T5 170935Z AUTO 20004KT 10SM SCT014 SCT024 BKN034 28/26 A2998 RMK AO2 LTG DSNT N T02810263
K3T5 170915Z AUTO 20005KT 10SM BKN014 BKN022 OVC036 28/26 A2998 RMK AO2 T02830262
K3T5 170855Z AUTO 19007KT 10SM BKN014 BKN020 OVC036 29/26 A2997 RMK AO2 T02850262
K3T5 170835Z AUTO 20009G15KT 10SM OVC014 29/26 A2997 RMK AO2 T02870262
K3T5 170815Z AUTO 19010G16KT 10SM OVC014 29/27 A2996 RMK AO2 T02870265
K3T5 170755Z AUTO 20009KT 10SM OVC014 29/27 A2996 RMK AO2 T02860265
K3T5 170735Z AUTO 18006KT 10SM OVC014 28/27 A2995 RMK AO2 T02830265
K3T5 170715Z AUTO 18005KT 7SM OVC014 28/27 A2996 RMK AO2 T02810265
K3T5 170655Z AUTO 18005KT 10SM OVC014 28/27 A2997 RMK AO2 T02820265
K3T5 170635Z AUTO 18003KT 10SM OVC014 28/26 A2997 RMK AO2 T02820263
K3T5 170615Z AUTO 17006KT 10SM OVC014 28/26 A2997 RMK AO2 T02830263
K3T5 170555Z AUTO 18005KT 10SM OVC014 28/26 A2996 RMK AO2 T02820262 10350 20281 403880259
K3T5 170535Z AUTO 18006KT 10SM SCT014 28/26 A2996 RMK AO2 T02820261
K3T5 170515Z AUTO 17006KT 10SM SCT019 SCT024 28/26 A2995 RMK AO2 T02830260
K3T5 170455Z AUTO 16004KT 10SM BKN019 OVC024 28/26 A2995 RMK AO2 T02820258
K3T5 170435Z AUTO 16004KT 10SM BKN019 BKN024 29/26 A2994 RMK AO2 T02860258
K3T5 170415Z AUTO 15004KT 10SM CLR 29/26 A2994 RMK AO2 T02860256
K3T5 170355Z AUTO 16007KT 10SM SCT023 29/26 A2993 RMK AO2 T02890255
K3T5 170335Z AUTO 17006KT 10SM CLR 29/26 A2993 RMK AO2 T02910255
K3T5 170315Z AUTO 16006KT 10SM CLR 29/25 A2994 RMK AO2 T02940252
K3T5 170255Z AUTO 16007KT 10SM CLR 30/25 A2994 RMK AO2 LTG DSNT SW T02970250
K3T5 170235Z AUTO 16009KT 10SM CLR 30/25 A2993 RMK AO2 T03010247
K3T5 170215Z AUTO 15006KT 10SM CLR 31/25 A2993 RMK AO2 T03050245
K3T5 170155Z AUTO 15007KT 10SM CLR 31/24 A2992 RMK AO2 T03100243
K3T5 170135Z AUTO 15007KT 10SM CLR 31/24 A2991 RMK AO2 T03140239
K3T5 170115Z AUTO 16009G14KT 10SM CLR 32/23 A2990 RMK AO2 T03220228
K3T5 170055Z AUTO 16011KT 10SM CLR 33/23 A2989 RMK AO2 T03290225
K3T5 170035Z AUTO 16011G15KT 10SM CLR 34/22 A2989 RMK AO2 T03370223
K3T5 170015Z AUTO 16011G14KT 10SM CLR 34/22 A2988 RMK AO2 T03440223
K3T5 162355Z AUTO 16011G15KT 10SM CLR 35/23 A2988 RMK AO2 T03500225 10388 20350
K3T5 162335Z AUTO 17012G18KT 10SM CLR 36/23 A2988 RMK AO2 T03570225
K3T5 162315Z AUTO 16010G15KT 10SM CLR 36/23 A2987 RMK AO2 T03620230
K3T5 162255Z AUTO 17011G18KT 10SM SCT060 37/23 A2987 RMK AO2 T03660231
K3T5 162235Z AUTO 15011G19KT 10SM SCT060 SCT070 37/23 A2987 RMK AO2 T03710234
K3T5 162215Z AUTO 15009G17KT 10SM SCT060 SCT070 SCT090 36/23 A2987 RMK AO2 T03600231
K3T5 162155Z AUTO 16012G16KT 10SM SCT060 SCT070 SCT080 37/23 A2987 RMK AO2 T03710230
K3T5 162135Z AUTO 17009KT 10SM SCT060 BKN080 BKN085 38/23 A2987 RMK AO2 T03760226
K3T5 162115Z AUTO 19009G19KT 10SM SCT060 SCT070 SCT095 38/23 A2987 RMK AO2 T03820225
K3T5 162055Z AUTO 17008G14KT 10SM SCT060 SCT095 37/23 A2988 RMK AO2 T03720226
K3T5 162035Z AUTO 15008G16KT 10SM SCT060 SCT085 38/23 A2988 RMK AO2 T03760231
K3T5 162015Z AUTO 15005KT 10SM BKN060 BKN075 BKN085 36/23 A2989 RMK AO2 T03630230
K3T5 161955Z AUTO 20008G14KT 10SM SCT060 BKN080 BKN085 37/23 A2989 RMK AO2 T03710230
K3T5 161935Z AUTO 16011KT 10SM BKN060 BKN070 37/23 A2990 RMK AO2 T03740225
K3T5 161915Z AUTO 19009G14KT 10SM SCT060 37/22 A2991 RMK AO2 T03720221
K3T5 161855Z AUTO 21011G18KT 10SM CLR 38/22 A2991 RMK AO2 T03760218
K3T5 161835Z AUTO 16012KT 10SM SCT050 37/22 A2992 RMK AO2 T03730220
K3T5 161815Z AUTO 17013G17KT 140V200 10SM SCT050 SCT060 37/22 A2993 RMK AO2 T03660224
K3T5 161755Z AUTO 19010G16KT 150V220 10SM SCT050 BKN060 36/23 A2994 RMK AO2 T03620229 10363 20259
K3T5 161735Z AUTO 22012G17KT 10SM SCT050 SCT060 36/23 A2995 RMK AO2 T03560228
K3T5 161715Z AUTO 17011G16KT 10SM SCT039 SCT046 SCT060 36/24 A2996 RMK AO2 T03560237
K3T5 161655Z AUTO 21010G15KT 10SM SCT039 BKN048 BKN060 34/23 A2996 RMK AO2 T03390231
K3T5 161635Z AUTO 21009G15KT 10SM SCT041 SCT050 BKN055 34/24 A2996 RMK AO2 T03400239
K3T5 161615Z AUTO 19010G16KT 10SM SCT050 SCT055 34/24 A2996 RMK AO2 T03440237
K3T5 161555Z AUTO 20013KT 10SM CLR 33/24 A2996 RMK AO2 T03330242
K3T5 161535Z AUTO 17009KT 10SM CLR 33/25 A2996 RMK AO2 T03290252